Osceola, Indiana
Current Conditions -  °F | °C
As of 1:50 PM on Thursday 30 Oct 2014 (Local Time) from KEKM Reporting Station
Overcast Overcast  
Wind Chill: 10°   Ceiling: 4200
Heat Index: 10°   Visibility: 10mi
Dew Point:   Wind: 8mph
Humidity: 50%   Direction: 230°SW
Pressure: 30.11"   Gusts: NA
Location:  41.67°N, 86.08°W
Report Text: KEKM 301750Z 23007KT 10SM OVC042 10/00 A3011
Loading
Personal Weather Stations






























Interactive Weather Map
Tropical Storm Tracking
New forecast layout! Learn more

10-Day Weather Forecast

Advertisements
Track Severe Weather on mobile